createdAt,value
2023-04-11T00:00:16.698Z,51.00
2023-04-11T00:02:43.686Z,51.65
2023-04-11T00:05:10.441Z,52.00
2023-04-11T00:07:37.061Z,51.40
2023-04-11T00:10:04.289Z,52.43
2023-04-11T00:12:30.860Z,53.16
2023-04-11T00:14:57.413Z,54.40
2023-04-11T00:17:24.331Z,54.99
2023-04-11T00:19:53.582Z,55.44
2023-04-11T00:22:20.156Z,55.05
2023-04-11T00:24:46.684Z,55.25
2023-04-11T00:27:13.238Z,55.08
2023-04-11T00:29:40.610Z,54.72
2023-04-11T00:32:07.324Z,56.43
2023-04-11T00:34:34.339Z,56.15
2023-04-11T00:37:01.698Z,56.80
2023-04-11T00:39:30.474Z,56.44
2023-04-11T00:42:05.650Z,60.24
2023-04-11T00:44:32.312Z,59.07
2023-04-11T00:47:00.460Z,60.07
2023-04-11T00:49:27.117Z,59.39
2023-04-11T00:51:54.372Z,59.46
2023-04-11T00:54:21.121Z,59.17
2023-04-11T00:56:47.861Z,59.88
2023-04-11T00:59:14.464Z,58.81
2023-04-11T01:01:41.774Z,58.69
2023-04-11T01:04:08.710Z,56.96
2023-04-11T01:06:36.500Z,58.28
2023-04-11T01:09:04.938Z,57.69
2023-04-11T01:11:32.644Z,57.63
2023-04-11T01:13:59.238Z,57.79
2023-04-11T01:16:25.940Z,58.03
2023-04-11T01:18:52.580Z,57.93
2023-04-11T01:21:20.630Z,56.64
2023-04-11T01:23:48.923Z,56.09
2023-04-11T01:26:16.236Z,55.39
2023-04-11T01:28:42.867Z,55.31
2023-04-11T01:31:09.550Z,55.49
2023-04-11T01:33:36.482Z,55.74
2023-04-11T01:36:03.666Z,56.99
2023-04-11T01:38:30.421Z,57.37
2023-04-11T01:40:58.200Z,57.18
2023-04-11T01:43:24.796Z,57.14
2023-04-11T01:45:51.780Z,57.03
2023-04-11T01:48:18.396Z,57.28
2023-04-11T01:50:45.043Z,57.89
2023-04-11T01:53:11.593Z,59.06
2023-04-11T01:55:38.252Z,59.16
2023-04-11T01:58:04.749Z,59.36
2023-04-11T02:00:32.565Z,60.16
2023-04-11T02:02:59.286Z,58.93
2023-04-11T02:05:25.935Z,59.20
2023-04-11T02:07:52.766Z,58.81
2023-04-11T02:10:19.638Z,59.31
2023-04-11T02:12:46.314Z,59.79
2023-04-11T02:15:12.877Z,59.92
2023-04-11T02:17:45.087Z,59.46
2023-04-11T02:20:13.596Z,59.73
2023-04-11T02:22:40.877Z,59.58
2023-04-11T02:25:08.187Z,59.21
2023-04-11T02:27:34.983Z,59.10
2023-04-11T02:30:05.732Z,57.95
2023-04-11T02:32:37.833Z,58.25
2023-04-11T02:35:05.298Z,59.09
2023-04-11T02:37:31.856Z,59.67
2023-04-11T02:39:58.537Z,62.63
2023-04-11T02:42:25.108Z,64.92
2023-04-11T02:44:55.673Z,69.07
2023-04-11T02:47:22.265Z,72.25
2023-04-11T02:49:48.919Z,72.32
2023-04-11T02:52:15.904Z,74.56
2023-04-11T02:54:42.482Z,75.35
2023-04-11T02:57:09.046Z,74.89
2023-04-11T02:59:35.596Z,75.37
2023-04-11T03:02:02.220Z,75.23
2023-04-11T03:04:29.041Z,77.09
2023-04-11T03:06:55.707Z,77.55
2023-04-11T03:09:23.498Z,78.22
2023-04-11T03:11:50.172Z,78.34
2023-04-11T03:14:16.818Z,78.21
2023-04-11T03:16:43.384Z,79.01
2023-04-11T03:19:09.877Z,77.61
2023-04-11T03:21:36.345Z,78.68
2023-04-11T03:24:03.027Z,78.94
2023-04-11T03:26:29.630Z,79.41
2023-04-11T03:28:56.650Z,79.31
2023-04-11T03:31:23.570Z,79.45
2023-04-11T03:33:50.282Z,78.09
2023-04-11T03:36:17.268Z,76.94
2023-04-11T03:38:43.782Z,77.98
2023-04-11T03:41:10.513Z,77.24
2023-04-11T03:43:37.129Z,76.94
2023-04-11T03:46:03.812Z,76.98
2023-04-11T03:48:31.042Z,78.00
2023-04-11T03:50:57.602Z,77.48
2023-04-11T03:53:24.173Z,76.58
2023-04-11T03:55:52.789Z,76.63
2023-04-11T03:58:19.288Z,76.61
2023-04-11T04:00:46.538Z,76.38
2023-04-11T04:03:13.792Z,76.49
2023-04-11T04:05:41.469Z,75.34
2023-04-11T04:08:08.373Z,75.87
2023-04-11T04:10:34.926Z,74.58
2023-04-11T04:13:01.617Z,77.04
2023-04-11T04:15:28.205Z,77.86
2023-04-11T04:17:54.837Z,80.13
2023-04-11T04:20:21.529Z,82.77
2023-04-11T04:22:48.078Z,84.23
2023-04-11T04:25:15.956Z,83.21
2023-04-11T04:27:44.474Z,83.57
2023-04-11T04:30:15.741Z,84.86
2023-04-11T04:32:44.086Z,85.01
2023-04-11T04:35:11.798Z,85.20
2023-04-11T04:37:45.827Z,85.00
2023-04-11T04:40:14.005Z,82.93
2023-04-11T04:42:44.082Z,81.54
2023-04-11T04:45:13.720Z,80.50
2023-04-11T04:47:40.584Z,79.24
2023-04-11T04:50:07.847Z,78.44
2023-04-11T04:52:34.770Z,77.37
2023-04-11T04:55:01.703Z,76.83
2023-04-11T04:57:29.545Z,76.45
2023-04-11T04:59:58.836Z,77.03
2023-04-11T05:02:26.857Z,78.93
2023-04-11T05:04:54.451Z,78.80
2023-04-11T05:07:21.040Z,78.50
2023-04-11T05:09:47.777Z,79.62
2023-04-11T05:12:16.065Z,77.72
2023-04-11T05:14:42.958Z,77.80
2023-04-11T05:17:09.542Z,81.05
2023-04-11T05:19:36.136Z,81.30
2023-04-11T05:22:02.798Z,81.77
2023-04-11T05:24:29.354Z,81.00
2023-04-11T05:26:56.763Z,80.85
2023-04-11T05:29:23.411Z,81.05
2023-04-11T05:31:49.976Z,78.82
2023-04-11T05:34:16.534Z,79.23
2023-04-11T05:36:43.131Z,80.60
2023-04-11T05:39:09.703Z,79.24
2023-04-11T05:41:36.245Z,80.33
2023-04-11T05:44:02.895Z,79.13
2023-04-11T05:46:30.092Z,80.08
2023-04-11T05:48:58.052Z,79.21
2023-04-11T05:51:24.771Z,80.84
2023-04-11T05:53:51.276Z,80.20
2023-04-11T05:56:17.993Z,78.14
2023-04-11T05:58:44.599Z,79.82
2023-04-11T06:01:18.273Z,81.84
2023-04-11T06:03:46.303Z,80.35
2023-04-11T06:06:13.408Z,80.64
2023-04-11T06:08:40.353Z,79.88
2023-04-11T06:11:07.004Z,79.51
2023-04-11T06:13:33.482Z,76.98
2023-04-11T06:16:00.264Z,76.95
2023-04-11T06:18:26.821Z,77.15
2023-04-11T06:20:53.971Z,77.02
2023-04-11T06:23:20.653Z,77.69
2023-04-11T06:25:47.287Z,78.61
2023-04-11T06:28:14.212Z,78.57
2023-04-11T06:30:40.839Z,79.23
2023-04-11T06:33:07.445Z,77.88
2023-04-11T06:35:34.071Z,78.78
2023-04-11T06:38:00.730Z,77.72
2023-04-11T06:40:27.256Z,78.33
2023-04-11T06:42:53.874Z,78.04
2023-04-11T06:45:20.662Z,78.12
2023-04-11T06:47:47.218Z,78.53
2023-04-11T06:50:13.862Z,77.50
2023-04-11T06:52:40.408Z,77.19
2023-04-11T06:55:07.660Z,75.79
2023-04-11T06:57:34.392Z,76.87
2023-04-11T07:00:00.952Z,76.78
2023-04-11T07:02:27.663Z,76.27
2023-04-11T07:04:54.397Z,76.91
2023-04-11T07:07:21.406Z,75.52
2023-04-11T07:09:48.157Z,74.84
2023-04-11T07:12:14.691Z,73.81
2023-04-11T07:14:41.253Z,74.19
2023-04-11T07:17:07.792Z,76.62
2023-04-11T07:19:34.409Z,77.11
2023-04-11T07:22:00.964Z,79.44
2023-04-11T07:24:30.516Z,78.87
2023-04-11T07:26:58.848Z,79.07
2023-04-11T07:29:25.407Z,80.25
2023-04-11T07:31:52.800Z,79.04
2023-04-11T07:34:19.404Z,76.45
2023-04-11T07:36:45.981Z,77.96
2023-04-11T07:39:14.205Z,79.17
2023-04-11T07:41:40.865Z,79.94
2023-04-11T07:44:07.901Z,80.44
2023-04-11T07:46:34.438Z,77.61
2023-04-11T07:49:01.287Z,76.49
2023-04-11T07:51:27.894Z,74.87
2023-04-11T07:53:54.702Z,74.44
2023-04-11T07:56:21.383Z,75.03
2023-04-11T07:58:47.966Z,76.45
2023-04-11T08:01:25.155Z,75.18
2023-04-11T08:03:53.798Z,76.94
2023-04-11T08:06:20.931Z,74.75
2023-04-11T08:08:48.618Z,73.45
2023-04-11T08:11:16.056Z,73.68
2023-04-11T08:13:43.917Z,74.03
2023-04-11T08:16:11.902Z,73.83
2023-04-11T08:18:42.228Z,71.96
2023-04-11T08:21:12.696Z,69.55
2023-04-11T08:23:39.975Z,68.75
2023-04-11T08:26:07.692Z,67.94
2023-04-11T08:28:34.557Z,68.92
2023-04-11T08:31:04.006Z,68.20
2023-04-11T08:33:30.908Z,67.32
2023-04-11T08:35:57.608Z,66.86
2023-04-11T08:38:24.320Z,64.22
2023-04-11T08:40:51.491Z,62.94
2023-04-11T08:43:19.067Z,61.21
2023-04-11T08:45:45.892Z,62.06
2023-04-11T08:48:12.614Z,60.34
2023-04-11T08:50:41.576Z,61.36
2023-04-11T08:53:08.800Z,63.69
2023-04-11T08:55:36.004Z,64.45
2023-04-11T08:58:03.797Z,64.05
2023-04-11T09:00:32.398Z,63.99
2023-04-11T09:03:01.760Z,65.21
2023-04-11T09:05:30.858Z,63.94
2023-04-11T09:07:59.139Z,64.42
2023-04-11T09:10:27.098Z,63.24
2023-04-11T09:12:57.256Z,64.73
2023-04-11T09:15:26.446Z,63.84
2023-04-11T09:17:54.161Z,63.56
2023-04-11T09:20:22.404Z,62.33
2023-04-11T09:22:50.184Z,61.56
2023-04-11T09:25:18.553Z,62.38
2023-04-11T09:27:45.496Z,62.60
2023-04-11T09:30:22.845Z,62.84
2023-04-11T09:32:53.195Z,60.69
2023-04-11T09:35:25.117Z,61.39
2023-04-11T09:37:59.186Z,64.29
2023-04-11T09:40:27.633Z,59.92
2023-04-11T09:42:58.605Z,62.26
2023-04-11T09:45:27.082Z,59.64
2023-04-11T09:47:56.764Z,63.51
2023-04-11T09:50:24.496Z,60.19
2023-04-11T09:52:52.886Z,62.26
2023-04-11T09:55:21.168Z,59.32
2023-04-11T09:57:50.474Z,59.75
2023-04-11T10:00:20.157Z,62.96
2023-04-11T10:02:49.458Z,61.18
2023-04-11T10:05:18.246Z,59.39
2023-04-11T10:07:52.380Z,60.01
2023-04-11T10:10:21.215Z,61.99
2023-04-11T10:12:48.855Z,60.39
2023-04-11T10:15:16.174Z,59.37
2023-04-11T10:17:43.075Z,61.60
2023-04-11T10:20:49.809Z,59.27
2023-04-11T10:23:17.259Z,61.34
2023-04-11T10:25:50.661Z,58.90
2023-04-11T10:28:37.850Z,58.18
2023-04-11T10:31:05.912Z,57.67
2023-04-11T10:33:33.607Z,55.87
2023-04-11T10:36:11.007Z,56.14
2023-04-11T10:38:44.182Z,56.48
2023-04-11T10:41:20.076Z,56.74
2023-04-11T10:43:47.295Z,59.12
2023-04-11T10:46:22.393Z,58.60
2023-04-11T10:49:04.139Z,59.31
2023-04-11T10:51:34.787Z,56.25
2023-04-11T10:54:02.142Z,55.90
2023-04-11T10:56:42.721Z,55.76
2023-04-11T10:59:31.452Z,61.99
2023-04-11T11:02:00.798Z,60.59
2023-04-11T11:04:38.697Z,59.75
2023-04-11T11:07:08.360Z,58.59
2023-04-11T11:09:35.501Z,56.15
2023-04-11T11:12:15.694Z,54.93
2023-04-11T11:14:44.247Z,55.92
2023-04-11T11:17:15.909Z,54.94
2023-04-11T11:19:47.182Z,53.38
2023-04-11T11:22:18.432Z,52.00
2023-04-11T11:24:45.081Z,57.19
2023-04-11T11:27:29.750Z,55.05
2023-04-11T11:29:56.266Z,54.92
2023-04-11T11:32:29.998Z,50.18
2023-04-11T11:34:57.732Z,50.76
2023-04-11T11:37:24.983Z,52.53
2023-04-11T11:39:51.816Z,56.37
2023-04-11T11:42:18.617Z,50.76
2023-04-11T11:44:45.185Z,58.18
2023-04-11T11:47:15.397Z,53.20
2023-04-11T11:49:55.550Z,54.58
2023-04-11T11:52:34.186Z,51.13
2023-04-11T11:55:02.390Z,55.12
2023-04-11T11:57:28.957Z,47.57
2023-04-11T11:59:56.607Z,50.68
2023-04-11T12:02:24.446Z,47.24
2023-04-11T12:04:51.836Z,46.13
2023-04-11T12:07:22.734Z,49.73
2023-04-11T12:09:49.716Z,47.83
2023-04-11T12:12:19.015Z,46.30
2023-04-11T12:14:54.978Z,43.86
2023-04-11T12:17:21.580Z,45.40
2023-04-11T12:19:48.189Z,44.05
2023-04-11T12:22:14.735Z,45.40
2023-04-11T12:24:41.330Z,48.17
2023-04-11T12:27:09.050Z,46.53
2023-04-11T12:29:37.186Z,43.14
2023-04-11T12:32:03.981Z,43.77
2023-04-11T12:34:30.507Z,44.50
2023-04-11T12:36:58.086Z,42.94
2023-04-11T12:39:24.627Z,47.13
2023-04-11T12:41:51.177Z,42.87
2023-04-11T12:44:17.765Z,41.69
2023-04-11T12:46:44.384Z,41.15
2023-04-11T12:49:10.961Z,43.14
2023-04-11T12:51:37.512Z,43.49
2023-04-11T12:54:04.821Z,46.78
2023-04-11T12:56:31.370Z,47.58
2023-04-11T12:58:58.091Z,44.83
2023-04-11T13:01:24.854Z,47.00
2023-04-11T13:03:51.571Z,47.14
2023-04-11T13:06:19.095Z,43.12
2023-04-11T13:08:45.739Z,42.16
2023-04-11T13:11:12.306Z,42.60
2023-04-11T13:13:38.830Z,42.88
2023-04-11T13:16:06.519Z,46.20
2023-04-11T13:18:33.017Z,46.82
2023-04-11T13:20:59.477Z,43.64
2023-04-11T13:23:25.995Z,45.39
2023-04-11T13:25:52.679Z,44.11
2023-04-11T13:28:19.384Z,43.05
2023-04-11T13:30:46.358Z,42.04
2023-04-11T13:33:12.863Z,43.90
2023-04-11T13:35:39.355Z,40.83
2023-04-11T13:38:05.888Z,44.22
2023-04-11T13:40:32.847Z,41.75
2023-04-11T13:42:59.381Z,43.76
2023-04-11T13:45:26.130Z,42.86
2023-04-11T13:47:52.653Z,42.92
2023-04-11T13:50:19.168Z,41.81
2023-04-11T13:52:45.684Z,41.50
2023-04-11T13:55:12.267Z,43.22
2023-04-11T13:57:38.760Z,43.86
2023-04-11T14:00:11.882Z,43.35
2023-04-11T14:02:41.909Z,44.28
2023-04-11T14:05:09.529Z,43.58
2023-04-11T14:07:36.092Z,44.03
2023-04-11T14:10:02.738Z,43.38
2023-04-11T14:12:29.278Z,44.23
2023-04-11T14:14:55.941Z,43.09
2023-04-11T14:17:22.496Z,41.13
2023-04-11T14:19:49.054Z,43.45
2023-04-11T14:22:15.777Z,42.63
2023-04-11T14:24:42.470Z,42.51
2023-04-11T14:27:09.289Z,44.05
2023-04-11T14:29:37.539Z,44.64
2023-04-11T14:32:04.774Z,44.82
2023-04-11T14:34:31.593Z,46.00
2023-04-11T14:36:58.118Z,43.17
2023-04-11T14:39:24.695Z,43.18
2023-04-11T14:41:51.271Z,42.36
2023-04-11T14:44:17.878Z,42.84
2023-04-11T14:46:44.472Z,41.24
2023-04-11T14:49:11.609Z,38.91
2023-04-11T14:51:38.778Z,39.85
2023-04-11T14:54:05.642Z,40.93
2023-04-11T14:56:32.404Z,39.18
2023-04-11T14:58:58.996Z,41.72
2023-04-11T15:01:25.597Z,41.34
2023-04-11T15:03:52.265Z,42.05
2023-04-11T15:06:18.994Z,43.31
2023-04-11T15:08:45.824Z,41.75
2023-04-11T15:11:12.474Z,42.46
2023-04-11T15:13:39.070Z,41.81
2023-04-11T15:16:06.572Z,43.10
2023-04-11T15:18:33.392Z,41.75
2023-04-11T15:21:01.937Z,42.62
2023-04-11T15:23:28.764Z,40.70
2023-04-11T15:25:57.406Z,42.04
2023-04-11T15:28:25.433Z,44.37
2023-04-11T15:30:53.833Z,43.57
2023-04-11T15:33:22.136Z,43.51
2023-04-11T15:35:48.811Z,45.62
2023-04-11T15:38:16.303Z,47.34
2023-04-11T15:40:43.472Z,47.94
2023-04-11T15:43:10.413Z,47.93
2023-04-11T15:45:39.676Z,47.74
2023-04-11T15:48:06.658Z,49.04
2023-04-11T15:50:33.293Z,47.51
2023-04-11T15:52:59.901Z,48.14
2023-04-11T15:55:26.513Z,50.48
2023-04-11T15:57:53.194Z,51.86
2023-04-11T16:00:22.332Z,51.81
2023-04-11T16:02:49.848Z,50.48
2023-04-11T16:05:17.044Z,51.46
2023-04-11T16:07:43.754Z,50.23
2023-04-11T16:10:10.648Z,52.86
2023-04-11T16:12:37.500Z,51.44
2023-04-11T16:15:05.688Z,52.56
2023-04-11T16:17:32.806Z,53.51
2023-04-11T16:19:59.792Z,53.92
2023-04-11T16:22:26.389Z,53.83
2023-04-11T16:24:52.941Z,61.05
2023-04-11T16:27:20.064Z,62.17
2023-04-11T16:29:46.754Z,64.53
2023-04-11T16:32:13.284Z,64.64
2023-04-11T16:34:40.017Z,64.29
2023-04-11T16:37:06.735Z,65.48
2023-04-11T16:39:33.437Z,65.19
2023-04-11T16:42:00.044Z,65.13
2023-04-11T16:44:26.648Z,63.70
2023-04-11T16:46:53.344Z,63.27
2023-04-11T16:49:19.881Z,63.66
2023-04-11T16:51:46.507Z,64.77
2023-04-11T16:54:13.808Z,65.11
2023-04-11T16:56:40.782Z,66.65
2023-04-11T16:59:07.522Z,66.95
2023-04-11T17:01:34.290Z,67.75
2023-04-11T17:04:01.595Z,67.38
2023-04-11T17:06:28.710Z,68.93
2023-04-11T17:08:57.547Z,67.51
2023-04-11T17:11:24.725Z,67.94
2023-04-11T17:13:51.554Z,68.20
2023-04-11T17:16:18.347Z,68.74
2023-04-11T17:18:44.936Z,69.38
2023-04-11T17:21:11.603Z,71.09
2023-04-11T17:23:43.073Z,72.06
2023-04-11T17:26:10.762Z,72.11
2023-04-11T17:28:38.490Z,73.29
2023-04-11T17:31:12.983Z,73.51
2023-04-11T17:33:40.068Z,72.90
2023-04-11T17:36:07.010Z,74.34
2023-04-11T17:38:33.624Z,73.05
2023-04-11T17:41:11.173Z,72.80
2023-04-11T17:43:41.346Z,74.44
2023-04-11T17:46:08.908Z,74.56
2023-04-11T17:48:36.882Z,74.70
2023-04-11T17:51:06.829Z,74.23
2023-04-11T17:53:33.660Z,75.78
2023-04-11T17:56:06.571Z,74.65
2023-04-11T17:58:42.418Z,76.54
2023-04-11T18:01:11.178Z,76.15
2023-04-11T18:03:38.556Z,76.85
2023-04-11T18:06:06.438Z,79.21
2023-04-11T18:08:49.044Z,78.40
2023-04-11T18:11:17.498Z,77.25
2023-04-11T18:13:44.165Z,77.18
2023-04-11T18:16:11.559Z,78.22
2023-04-11T18:18:38.236Z,77.06
2023-04-11T18:21:06.698Z,77.62
2023-04-11T18:23:34.096Z,78.14
2023-04-11T18:26:00.614Z,79.59
2023-04-11T18:28:27.294Z,80.05
2023-04-11T18:30:53.995Z,76.33
2023-04-11T18:33:20.882Z,79.23
2023-04-11T18:35:47.788Z,79.77
2023-04-11T18:38:14.671Z,79.31
2023-04-11T18:40:41.332Z,81.75
2023-04-11T18:43:08.252Z,82.10
2023-04-11T18:45:35.334Z,82.34
2023-04-11T18:48:02.300Z,82.19
2023-04-11T18:50:30.774Z,81.94
2023-04-11T18:53:03.626Z,81.14
2023-04-11T18:55:31.840Z,81.94
2023-04-11T18:58:00.347Z,81.23
2023-04-11T19:00:29.480Z,81.80
2023-04-11T19:02:56.395Z,80.57
2023-04-11T19:05:25.514Z,79.24
2023-04-11T19:07:52.879Z,80.11
2023-04-11T19:10:19.781Z,81.46
2023-04-11T19:12:46.382Z,80.46
2023-04-11T19:15:13.051Z,81.34
2023-04-11T19:17:39.756Z,82.30
2023-04-11T19:20:07.316Z,83.24
2023-04-11T19:22:35.980Z,80.96
2023-04-11T19:25:02.613Z,81.24
2023-04-11T19:27:29.376Z,83.37
2023-04-11T19:29:56.916Z,82.36
2023-04-11T19:32:23.582Z,83.16
2023-04-11T19:34:50.644Z,82.21
2023-04-11T19:37:20.117Z,83.49
2023-04-11T19:39:46.663Z,82.54
2023-04-11T19:42:13.243Z,83.03
2023-04-11T19:44:40.025Z,84.40
2023-04-11T19:47:06.864Z,82.02
2023-04-11T19:49:33.486Z,80.50
2023-04-11T19:52:00.178Z,81.34
2023-04-11T19:54:26.895Z,81.87
2023-04-11T19:56:53.552Z,82.26
2023-04-11T19:59:20.353Z,82.38
2023-04-11T20:01:46.978Z,81.41
2023-04-11T20:04:15.701Z,82.71
2023-04-11T20:06:44.310Z,82.24
2023-04-11T20:09:11.858Z,83.30
2023-04-11T20:11:39.600Z,83.68
2023-04-11T20:14:07.720Z,83.10
2023-04-11T20:16:34.363Z,84.05
2023-04-11T20:19:01.727Z,84.02
2023-04-11T20:21:28.556Z,84.34
2023-04-11T20:23:55.344Z,83.68
2023-04-11T20:26:22.549Z,83.25
2023-04-11T20:28:50.452Z,83.49
2023-04-11T20:31:17.222Z,83.11
2023-04-11T20:33:45.434Z,83.26
2023-04-11T20:36:12.626Z,82.96
2023-04-11T20:38:39.228Z,83.92
2023-04-11T20:41:06.331Z,83.71
2023-04-11T20:43:33.034Z,82.92
2023-04-11T20:46:00.154Z,83.17
2023-04-11T20:48:30.307Z,82.95
2023-04-11T20:50:56.935Z,82.45
2023-04-11T20:53:23.686Z,83.82
2023-04-11T20:55:50.916Z,83.25
2023-04-11T20:58:20.712Z,81.59
2023-04-11T21:00:47.709Z,82.51
2023-04-11T21:03:14.540Z,81.58
2023-04-11T21:05:44.288Z,81.97
2023-04-11T21:08:13.975Z,83.74
2023-04-11T21:10:40.846Z,83.64
2023-04-11T21:13:07.410Z,83.79
2023-04-11T21:15:34.996Z,82.99
2023-04-11T21:18:02.069Z,82.52
2023-04-11T21:20:28.824Z,83.83
2023-04-11T21:22:55.730Z,84.43
2023-04-11T21:25:23.533Z,84.52
2023-04-11T21:27:50.333Z,84.27
2023-04-11T21:30:17.173Z,83.15
2023-04-11T21:32:43.902Z,84.52
2023-04-11T21:35:11.975Z,84.27
2023-04-11T21:37:38.987Z,84.81
2023-04-11T21:40:08.621Z,83.43
2023-04-11T21:42:35.315Z,84.05
2023-04-11T21:45:01.940Z,84.35
2023-04-11T21:47:28.684Z,82.60
2023-04-11T21:49:55.396Z,82.50
2023-04-11T21:52:22.033Z,83.42
2023-04-11T21:54:48.584Z,83.39
2023-04-11T21:57:15.231Z,84.38
2023-04-11T21:59:41.928Z,84.37
2023-04-11T22:02:08.655Z,83.08
2023-04-11T22:04:41.313Z,82.24
2023-04-11T22:07:15.596Z,82.70
2023-04-11T22:09:46.609Z,83.07
2023-04-11T22:12:17.440Z,82.53
2023-04-11T22:14:44.140Z,82.72
2023-04-11T22:17:11.007Z,81.05
2023-04-11T22:19:37.552Z,82.06
2023-04-11T22:22:08.221Z,81.44
2023-04-11T22:24:35.022Z,82.72
2023-04-11T22:27:04.540Z,82.86
2023-04-11T22:29:31.482Z,81.51
2023-04-11T22:31:59.549Z,81.05
2023-04-11T22:34:32.472Z,83.01
2023-04-11T22:36:59.090Z,82.08
2023-04-11T22:39:25.954Z,81.05
2023-04-11T22:41:53.437Z,82.36
2023-04-11T22:44:20.907Z,83.08
2023-04-11T22:47:08.102Z,81.15
2023-04-11T22:49:41.023Z,82.47
2023-04-11T22:52:09.361Z,83.14
2023-04-11T22:54:36.148Z,82.45
2023-04-11T22:57:02.768Z,83.08
2023-04-11T22:59:29.346Z,82.96
2023-04-11T23:01:55.974Z,82.41
2023-04-11T23:04:22.839Z,82.34
2023-04-11T23:06:53.573Z,81.75
2023-04-11T23:09:21.127Z,81.62
2023-04-11T23:11:47.860Z,83.34
2023-04-11T23:14:15.511Z,82.29
2023-04-11T23:16:43.456Z,80.13
2023-04-11T23:19:10.897Z,79.06
2023-04-11T23:21:37.892Z,80.23
2023-04-11T23:24:06.718Z,81.17
2023-04-11T23:26:33.574Z,81.26
2023-04-11T23:29:02.514Z,81.09
2023-04-11T23:31:30.223Z,80.99
2023-04-11T23:33:57.053Z,81.65
2023-04-11T23:36:23.869Z,80.97
2023-04-11T23:38:50.700Z,80.83
2023-04-11T23:41:17.253Z,80.62
2023-04-11T23:43:43.854Z,81.65
2023-04-11T23:46:11.070Z,81.94
2023-04-11T23:48:37.735Z,82.37
2023-04-11T23:51:04.614Z,83.00
2023-04-11T23:53:31.781Z,83.66
2023-04-11T23:55:58.451Z,83.33
2023-04-11T23:58:25.000Z,82.37
